WMT6RE LRIA-EBCI
Flight info
| Callsign | WMT6RE |
|---|---|
| Flight time | 2h 14m |
| Altitude | 10000 |
| Route | ARPIG P133 TOMUC/N0438F340 DCT KARIL DCT PITOK DCT LALES DCT KATQA DCT OKG L984 LONLI DCT MARZA DCT TEKTU DCT TESGA DCT UMUPU T880 ADMUM/N0383F240 T880 BATTY |
| Aircraft | A321/M-SDE1E2E3FGIJ1J4RWXY/LB1 |
Departure
| Time | 2026-04-22 23:15 |
|---|---|
| Airport | Iaşi International Airport (LRIA) |
Arrival
| Time | 2026-04-23 01:29 |
|---|---|
| Airport | Brussels South Charleroi Airport (EBCI) |
| Time | Latitude | Longitude | Altitude | Speed | Heading |
|---|---|---|---|---|---|
| 2026-04-22 22:56 | 47.17606 | 27.61938 | 374 ft | 0 kts | 271° |
| 2026-04-22 23:01 | 47.17606 | 27.61959 | 374 ft | 4 kts | 258° |
| 2026-04-22 23:01 | 47.17617 | 27.61989 | 374 ft | 4 kts | 204° |
| 2026-04-22 23:01 | 47.17641 | 27.61992 | 374 ft | 4 kts | 159° |
| 2026-04-22 23:01 | 47.17648 | 27.61987 | 374 ft | 0 kts | 154° |
| 2026-04-22 23:04 | 47.17642 | 27.61992 | 374 ft | 4 kts | 154° |
| 2026-04-22 23:04 | 47.17629 | 27.62001 | 374 ft | 0 kts | 154° |
| 2026-04-22 23:09 | 47.17614 | 27.62012 | 387 ft | 8 kts | 154° |
| 2026-04-22 23:09 | 47.17533 | 27.62071 | 368 ft | 17 kts | 154° |
| 2026-04-22 23:10 | 47.17424 | 27.62165 | 368 ft | 20 kts | 148° |
| 2026-04-22 23:10 | 47.17305 | 27.62272 | 366 ft | 16 kts | 149° |
| 2026-04-22 23:10 | 47.17283 | 27.62421 | 359 ft | 17 kts | 50° |
| 2026-04-22 23:10 | 47.17337 | 27.62559 | 351 ft | 20 kts | 60° |
| 2026-04-22 23:11 | 47.17327 | 27.62723 | 351 ft | 18 kts | 144° |
| 2026-04-22 23:11 | 47.17217 | 27.62822 | 333 ft | 17 kts | 138° |
| 2026-04-22 23:11 | 47.17149 | 27.62941 | 329 ft | 13 kts | 163° |
| 2026-04-22 23:11 | 47.17134 | 27.62879 | 329 ft | 9 kts | 333° |
| 2026-04-22 23:12 | 47.17160 | 27.62858 | 333 ft | 0 kts | 328° |
| 2026-04-22 23:13 | 47.17161 | 27.62857 | 333 ft | 1 kts | 328° |
| 2026-04-22 23:13 | 47.17163 | 27.62856 | 333 ft | 0 kts | 329° |
| 2026-04-22 23:13 | 47.17164 | 27.62854 | 333 ft | 1 kts | 329° |
| 2026-04-22 23:14 | 47.17166 | 27.62853 | 333 ft | 1 kts | 329° |
| 2026-04-22 23:14 | 47.17237 | 27.62789 | 333 ft | 48 kts | 329° |
| 2026-04-22 23:14 | 47.17807 | 27.62284 | 363 ft | 139 kts | 328° |
| 2026-04-22 23:14 | 47.18731 | 27.61445 | 994 ft | 156 kts | 327° |
| 2026-04-22 23:15 | 47.19672 | 27.60701 | 1918 ft | 158 kts | 328° |
| 2026-04-22 23:15 | 47.20697 | 27.59944 | 2412 ft | 174 kts | 330° |
| 2026-04-22 23:15 | 47.21842 | 27.59100 | 2752 ft | 195 kts | 331° |
| 2026-04-22 23:15 | 47.23113 | 27.58156 | 3038 ft | 214 kts | 330° |
| 2026-04-22 23:16 | 47.24210 | 27.56696 | 3698 ft | 218 kts | 297° |
| 2026-04-22 23:16 | 47.24769 | 27.54625 | 4566 ft | 218 kts | 295° |
| 2026-04-22 23:16 | 47.25406 | 27.52618 | 5481 ft | 216 kts | 300° |
| 2026-04-22 23:16 | 47.26101 | 27.50656 | 6350 ft | 217 kts | 302° |
| 2026-04-22 23:17 | 47.26822 | 27.48694 | 7129 ft | 219 kts | 302° |
| 2026-04-22 23:17 | 47.27552 | 27.46719 | 7844 ft | 230 kts | 303° |
| 2026-04-22 23:17 | 47.28337 | 27.44597 | 8771 ft | 240 kts | 303° |
| 2026-04-22 23:17 | 47.29142 | 27.42411 | 9854 ft | 246 kts | 303° |
| 2026-04-22 23:18 | 47.29965 | 27.40173 | 10838 ft | 251 kts | 303° |
| 2026-04-22 23:18 | 47.30802 | 27.37887 | 11822 ft | 256 kts | 302° |
| 2026-04-22 23:18 | 47.31654 | 27.35549 | 12804 ft | 262 kts | 302° |
| 2026-04-22 23:18 | 47.32524 | 27.33158 | 13789 ft | 267 kts | 301° |
| 2026-04-22 23:19 | 47.33412 | 27.30721 | 14658 ft | 272 kts | 301° |
| 2026-04-22 23:19 | 47.34317 | 27.28242 | 15290 ft | 288 kts | 301° |
| 2026-04-22 23:19 | 47.35309 | 27.25531 | 15656 ft | 312 kts | 301° |
| 2026-04-22 23:19 | 47.36378 | 27.22602 | 15992 ft | 336 kts | 301° |
| 2026-04-22 23:20 | 47.37505 | 27.19496 | 16565 ft | 349 kts | 301° |
| 2026-04-22 23:20 | 47.38656 | 27.16305 | 17391 ft | 355 kts | 301° |
| 2026-04-22 23:20 | 47.39822 | 27.13070 | 18240 ft | 360 kts | 301° |
| 2026-04-22 23:20 | 47.41006 | 27.09781 | 18984 ft | 365 kts | 301° |
| 2026-04-22 23:21 | 47.42209 | 27.06443 | 19700 ft | 371 kts | 301° |
| 2026-04-22 23:21 | 47.43414 | 27.03101 | 20418 ft | 377 kts | 302° |
| 2026-04-22 23:21 | 47.44653 | 26.99664 | 21133 ft | 382 kts | 302° |
| 2026-04-22 23:21 | 47.45912 | 26.96167 | 21853 ft | 388 kts | 302° |
| 2026-04-22 23:22 | 47.47187 | 26.92617 | 22579 ft | 394 kts | 303° |
| 2026-04-22 23:22 | 47.48479 | 26.89016 | 23302 ft | 400 kts | 303° |
| 2026-04-22 23:22 | 47.49766 | 26.85336 | 23904 ft | 407 kts | 300° |
| 2026-04-22 23:22 | 47.50732 | 26.81350 | 24449 ft | 418 kts | 290° |
| 2026-04-22 23:23 | 47.51243 | 26.77059 | 24973 ft | 429 kts | 282° |
| 2026-04-22 23:23 | 47.51601 | 26.72718 | 25524 ft | 433 kts | 282° |
| 2026-04-22 23:23 | 47.51969 | 26.68276 | 26079 ft | 437 kts | 282° |
| 2026-04-22 23:23 | 47.52342 | 26.63789 | 26610 ft | 442 kts | 282° |
| 2026-04-22 23:24 | 47.52717 | 26.59260 | 27142 ft | 446 kts | 282° |
| 2026-04-22 23:24 | 47.53094 | 26.54685 | 27672 ft | 450 kts | 282° |
| 2026-04-22 23:24 | 47.53472 | 26.50074 | 28194 ft | 454 kts | 282° |
| 2026-04-22 23:24 | 47.53851 | 26.45411 | 28715 ft | 459 kts | 282° |
| 2026-04-22 23:25 | 47.54233 | 26.40700 | 29235 ft | 463 kts | 282° |
| 2026-04-22 23:25 | 47.54616 | 26.35953 | 29721 ft | 466 kts | 282° |
| 2026-04-22 23:25 | 47.54995 | 26.31240 | 30208 ft | 469 kts | 282° |
| 2026-04-22 23:25 | 47.55382 | 26.26416 | 30579 ft | 475 kts | 282° |
| 2026-04-22 23:26 | 47.55772 | 26.21540 | 30982 ft | 479 kts | 282° |
| 2026-04-22 23:26 | 47.56162 | 26.16618 | 31409 ft | 483 kts | 282° |
| 2026-04-22 23:26 | 47.56550 | 26.11671 | 31948 ft | 484 kts | 282° |
| 2026-04-22 23:26 | 47.56933 | 26.06734 | 32569 ft | 482 kts | 282° |
| 2026-04-22 23:27 | 47.57315 | 26.01809 | 33197 ft | 481 kts | 282° |
| 2026-04-22 23:27 | 47.57695 | 25.96897 | 33794 ft | 480 kts | 282° |
| 2026-04-22 23:27 | 47.58073 | 25.91973 | 34030 ft | 482 kts | 282° |
| 2026-04-22 23:27 | 47.58447 | 25.87077 | 34071 ft | 474 kts | 282° |
| 2026-04-22 23:28 | 47.59168 | 25.77525 | 34070 ft | 468 kts | 282° |
| 2026-04-22 23:28 | 47.59884 | 25.67957 | 34088 ft | 467 kts | 282° |
| 2026-04-22 23:29 | 47.60595 | 25.58390 | 34100 ft | 467 kts | 282° |
| 2026-04-22 23:29 | 47.61306 | 25.48824 | 34090 ft | 467 kts | 282° |
| 2026-04-22 23:30 | 47.61996 | 25.39311 | 34116 ft | 467 kts | 282° |
| 2026-04-22 23:30 | 47.62676 | 25.29732 | 34120 ft | 468 kts | 282° |
| 2026-04-22 23:31 | 47.63348 | 25.20139 | 34126 ft | 468 kts | 281° |
| 2026-04-22 23:31 | 47.64020 | 25.10543 | 34115 ft | 468 kts | 282° |
| 2026-04-22 23:32 | 47.64687 | 25.01005 | 34109 ft | 469 kts | 282° |
| 2026-04-22 23:32 | 47.65343 | 24.91380 | 34117 ft | 470 kts | 281° |
| 2026-04-22 23:33 | 47.65991 | 24.81735 | 34121 ft | 470 kts | 281° |
| 2026-04-22 23:33 | 47.66628 | 24.72081 | 34125 ft | 470 kts | 281° |
| 2026-04-22 23:34 | 47.67255 | 24.62487 | 34100 ft | 471 kts | 281° |
| 2026-04-22 23:34 | 47.67888 | 24.52811 | 34105 ft | 472 kts | 281° |
| 2026-04-22 23:35 | 47.68512 | 24.43116 | 34114 ft | 473 kts | 281° |
| 2026-04-22 23:35 | 47.69123 | 24.33398 | 34121 ft | 473 kts | 281° |
| 2026-04-22 23:36 | 47.69721 | 24.23738 | 34127 ft | 473 kts | 281° |
| 2026-04-22 23:36 | 47.70317 | 24.13997 | 34105 ft | 474 kts | 281° |
| 2026-04-22 23:37 | 47.70908 | 24.04240 | 34104 ft | 475 kts | 281° |
| 2026-04-22 23:37 | 47.71496 | 23.94458 | 34106 ft | 476 kts | 281° |
| 2026-04-22 23:38 | 47.72075 | 23.84668 | 34098 ft | 476 kts | 280° |
| 2026-04-22 23:38 | 47.72633 | 23.74928 | 34077 ft | 477 kts | 280° |
| 2026-04-22 23:39 | 47.73190 | 23.65108 | 34065 ft | 478 kts | 280° |
| 2026-04-22 23:39 | 47.73744 | 23.55265 | 34069 ft | 479 kts | 280° |
| 2026-04-22 23:40 | 47.74295 | 23.45405 | 34083 ft | 479 kts | 280° |
| 2026-04-22 23:40 | 47.74828 | 23.35591 | 34116 ft | 480 kts | 280° |
| 2026-04-22 23:41 | 47.75359 | 23.25698 | 34090 ft | 481 kts | 280° |
| 2026-04-22 23:41 | 47.75881 | 23.15780 | 34097 ft | 482 kts | 279° |
| 2026-04-22 23:42 | 47.76396 | 23.05852 | 34101 ft | 482 kts | 279° |
| 2026-04-22 23:42 | 47.76894 | 22.95971 | 34107 ft | 483 kts | 279° |
| 2026-04-22 23:43 | 47.77390 | 22.86014 | 34085 ft | 483 kts | 279° |
| 2026-04-22 23:43 | 47.77881 | 22.76046 | 34091 ft | 484 kts | 279° |
| 2026-04-22 23:44 | 47.78366 | 22.66058 | 34096 ft | 485 kts | 279° |
| 2026-04-22 23:44 | 47.78840 | 22.56053 | 34102 ft | 485 kts | 279° |
| 2026-04-22 23:45 | 47.79421 | 22.46154 | 34083 ft | 480 kts | 286° |
| 2026-04-22 23:45 | 47.81368 | 22.36833 | 34093 ft | 469 kts | 299° |
| 2026-04-22 23:46 | 47.83783 | 22.27812 | 34096 ft | 470 kts | 299° |
| 2026-04-22 23:46 | 47.86193 | 22.18763 | 34100 ft | 470 kts | 299° |
| 2026-04-22 23:47 | 47.88590 | 22.09697 | 34113 ft | 471 kts | 298° |
| 2026-04-22 23:47 | 47.90965 | 22.00666 | 34101 ft | 472 kts | 298° |
| 2026-04-22 23:48 | 47.93357 | 21.91557 | 34107 ft | 472 kts | 298° |
| 2026-04-22 23:48 | 47.95748 | 21.82418 | 34117 ft | 473 kts | 298° |
| 2026-04-22 23:49 | 47.98127 | 21.73258 | 34128 ft | 474 kts | 298° |
| 2026-04-22 23:49 | 48.00496 | 21.64148 | 34104 ft | 475 kts | 298° |
| 2026-04-22 23:50 | 48.02882 | 21.54938 | 34097 ft | 476 kts | 298° |
| 2026-04-22 23:50 | 48.05264 | 21.45695 | 34106 ft | 477 kts | 298° |
| 2026-04-22 23:51 | 48.07632 | 21.36421 | 34116 ft | 478 kts | 298° |
| 2026-04-22 23:51 | 48.09988 | 21.27192 | 34124 ft | 478 kts | 298° |
| 2026-04-22 23:52 | 48.12360 | 21.17906 | 34127 ft | 478 kts | 298° |
| 2026-04-22 23:52 | 48.14719 | 21.08607 | 34135 ft | 478 kts | 298° |
| 2026-04-22 23:53 | 48.17066 | 20.99285 | 34135 ft | 478 kts | 298° |
| 2026-04-22 23:53 | 48.19410 | 20.89953 | 34125 ft | 479 kts | 297° |
| 2026-04-22 23:54 | 48.21739 | 20.80654 | 34127 ft | 480 kts | 297° |
| 2026-04-22 23:54 | 48.24069 | 20.71267 | 34142 ft | 480 kts | 297° |
| 2026-04-22 23:55 | 48.26395 | 20.61872 | 34159 ft | 480 kts | 297° |
| 2026-04-22 23:55 | 48.28719 | 20.52468 | 34132 ft | 481 kts | 297° |
| 2026-04-22 23:56 | 48.31022 | 20.43112 | 34150 ft | 481 kts | 297° |
| 2026-04-22 23:56 | 48.33308 | 20.33656 | 34160 ft | 482 kts | 296° |
| 2026-04-22 23:57 | 48.35407 | 20.24056 | 34165 ft | 484 kts | 294° |
| 2026-04-22 23:57 | 48.37416 | 20.14381 | 34157 ft | 485 kts | 294° |
| 2026-04-22 23:58 | 48.39433 | 20.04777 | 34161 ft | 485 kts | 294° |
| 2026-04-22 23:58 | 48.41494 | 19.95123 | 34171 ft | 484 kts | 294° |
| 2026-04-22 23:59 | 48.43551 | 19.85469 | 34176 ft | 484 kts | 294° |
| 2026-04-22 23:59 | 48.45594 | 19.75797 | 34154 ft | 485 kts | 294° |
| 2026-04-23 00:00 | 48.48629 | 19.61333 | 34167 ft | 485 kts | 294° |
| 2026-04-23 00:01 | 48.50646 | 19.51622 | 34182 ft | 485 kts | 293° |
| 2026-04-23 00:01 | 48.52655 | 19.41912 | 34178 ft | 485 kts | 293° |
| 2026-04-23 00:02 | 48.54662 | 19.32190 | 34170 ft | 485 kts | 293° |
| 2026-04-23 00:02 | 48.56657 | 19.22461 | 34178 ft | 485 kts | 293° |
| 2026-04-23 00:03 | 48.58639 | 19.12778 | 34181 ft | 486 kts | 293° |
| 2026-04-23 00:03 | 48.60620 | 19.03029 | 34195 ft | 485 kts | 293° |
| 2026-04-23 00:04 | 48.62594 | 18.93286 | 34190 ft | 485 kts | 292° |
| 2026-04-23 00:04 | 48.64561 | 18.83542 | 34201 ft | 485 kts | 292° |
| 2026-04-23 00:05 | 48.66507 | 18.73844 | 34209 ft | 485 kts | 292° |
| 2026-04-23 00:05 | 48.68450 | 18.64077 | 34209 ft | 484 kts | 292° |
| 2026-04-23 00:06 | 48.70380 | 18.54299 | 34189 ft | 485 kts | 292° |
| 2026-04-23 00:06 | 48.72315 | 18.44517 | 34206 ft | 485 kts | 292° |
| 2026-04-23 00:07 | 48.74228 | 18.34792 | 34214 ft | 485 kts | 292° |
| 2026-04-23 00:07 | 48.76144 | 18.24990 | 34224 ft | 485 kts | 292° |
| 2026-04-23 00:08 | 48.78045 | 18.15178 | 34210 ft | 485 kts | 291° |
| 2026-04-23 00:08 | 48.79944 | 18.05362 | 34223 ft | 485 kts | 291° |
| 2026-04-23 00:09 | 48.81826 | 17.95603 | 34217 ft | 485 kts | 291° |
| 2026-04-23 00:09 | 48.83709 | 17.85772 | 34223 ft | 485 kts | 291° |
| 2026-04-23 00:10 | 48.85579 | 17.75925 | 34204 ft | 485 kts | 291° |
| 2026-04-23 00:10 | 48.88001 | 17.66494 | 34207 ft | 475 kts | 303° |
| 2026-04-23 00:11 | 48.91001 | 17.57539 | 34201 ft | 475 kts | 303° |
| 2026-04-23 00:11 | 48.93972 | 17.48629 | 34200 ft | 476 kts | 303° |
| 2026-04-23 00:12 | 48.96941 | 17.39634 | 34205 ft | 476 kts | 303° |
| 2026-04-23 00:12 | 48.99900 | 17.30626 | 34212 ft | 476 kts | 303° |
| 2026-04-23 00:13 | 49.02664 | 17.21509 | 34210 ft | 481 kts | 296° |
| 2026-04-23 00:13 | 49.04971 | 17.11932 | 34214 ft | 481 kts | 296° |
| 2026-04-23 00:14 | 49.07271 | 17.02343 | 34207 ft | 482 kts | 295° |
| 2026-04-23 00:14 | 49.09572 | 16.92739 | 34200 ft | 482 kts | 295° |
| 2026-04-23 00:15 | 49.11867 | 16.83109 | 34217 ft | 483 kts | 295° |
| 2026-04-23 00:15 | 49.14133 | 16.73518 | 34215 ft | 484 kts | 295° |
| 2026-04-23 00:16 | 49.16410 | 16.63853 | 34220 ft | 484 kts | 295° |
| 2026-04-23 00:16 | 49.18684 | 16.54177 | 34198 ft | 484 kts | 295° |
| 2026-04-23 00:17 | 49.20952 | 16.44490 | 34217 ft | 484 kts | 295° |
| 2026-04-23 00:17 | 49.23193 | 16.34865 | 34227 ft | 484 kts | 294° |
| 2026-04-23 00:18 | 49.25436 | 16.25162 | 34245 ft | 484 kts | 294° |
| 2026-04-23 00:18 | 49.27676 | 16.15454 | 34246 ft | 484 kts | 294° |
| 2026-04-23 00:19 | 49.29912 | 16.05716 | 34226 ft | 485 kts | 294° |
| 2026-04-23 00:19 | 49.32120 | 15.96046 | 34272 ft | 483 kts | 294° |
| 2026-04-23 00:20 | 49.34329 | 15.86324 | 34279 ft | 483 kts | 294° |
| 2026-04-23 00:20 | 49.36531 | 15.76602 | 34266 ft | 482 kts | 294° |
| 2026-04-23 00:21 | 49.38727 | 15.66890 | 34270 ft | 482 kts | 294° |
| 2026-04-23 00:21 | 49.40898 | 15.57227 | 34273 ft | 482 kts | 294° |
| 2026-04-23 00:22 | 49.43074 | 15.47493 | 34277 ft | 482 kts | 293° |
| 2026-04-23 00:22 | 49.45234 | 15.37743 | 34281 ft | 482 kts | 293° |
| 2026-04-23 00:23 | 49.47392 | 15.27984 | 34279 ft | 483 kts | 293° |
| 2026-04-23 00:23 | 49.49528 | 15.18266 | 34286 ft | 483 kts | 293° |
| 2026-04-23 00:24 | 49.51676 | 15.08456 | 34289 ft | 484 kts | 293° |
| 2026-04-23 00:24 | 49.53824 | 14.98636 | 34296 ft | 484 kts | 293° |
| 2026-04-23 00:25 | 49.55964 | 14.88801 | 34287 ft | 484 kts | 292° |
| 2026-04-23 00:25 | 49.58074 | 14.79020 | 34299 ft | 485 kts | 292° |
| 2026-04-23 00:26 | 49.60195 | 14.69160 | 34313 ft | 485 kts | 292° |
| 2026-04-23 00:26 | 49.62305 | 14.59295 | 34314 ft | 485 kts | 292° |
| 2026-04-23 00:27 | 49.64406 | 14.49415 | 34299 ft | 485 kts | 292° |
| 2026-04-23 00:27 | 49.66495 | 14.39580 | 34302 ft | 486 kts | 292° |
| 2026-04-23 00:28 | 49.68587 | 14.29655 | 34315 ft | 486 kts | 291° |
| 2026-04-23 00:28 | 49.70668 | 14.19717 | 34323 ft | 486 kts | 291° |
| 2026-04-23 00:29 | 49.72749 | 14.09774 | 34305 ft | 486 kts | 291° |
| 2026-04-23 00:29 | 49.74809 | 13.99881 | 34315 ft | 487 kts | 291° |
| 2026-04-23 00:30 | 49.76867 | 13.89901 | 34315 ft | 487 kts | 291° |
| 2026-04-23 00:30 | 49.78918 | 13.79915 | 34323 ft | 487 kts | 291° |
| 2026-04-23 00:31 | 49.80965 | 13.69924 | 34327 ft | 487 kts | 291° |
| 2026-04-23 00:31 | 49.82994 | 13.59991 | 34319 ft | 487 kts | 290° |
| 2026-04-23 00:32 | 49.85024 | 13.49971 | 34314 ft | 488 kts | 290° |
| 2026-04-23 00:32 | 49.87045 | 13.39928 | 34318 ft | 488 kts | 290° |
| 2026-04-23 00:33 | 49.89055 | 13.29883 | 34325 ft | 487 kts | 290° |
| 2026-04-23 00:33 | 49.91064 | 13.19842 | 34340 ft | 487 kts | 290° |
| 2026-04-23 00:34 | 49.93047 | 13.09864 | 34350 ft | 487 kts | 290° |
| 2026-04-23 00:34 | 49.95036 | 12.99815 | 34353 ft | 487 kts | 290° |
| 2026-04-23 00:35 | 49.97014 | 12.89757 | 34345 ft | 487 kts | 290° |
| 2026-04-23 00:35 | 49.98978 | 12.79689 | 34336 ft | 487 kts | 289° |
| 2026-04-23 00:36 | 50.00937 | 12.69606 | 34337 ft | 487 kts | 289° |
| 2026-04-23 00:36 | 50.02874 | 12.59584 | 34342 ft | 488 kts | 289° |
| 2026-04-23 00:37 | 50.04817 | 12.49473 | 34345 ft | 488 kts | 289° |
| 2026-04-23 00:37 | 50.06437 | 12.39224 | 34359 ft | 490 kts | 277° |
| 2026-04-23 00:38 | 50.06687 | 12.28614 | 34344 ft | 491 kts | 271° |
| 2026-04-23 00:38 | 50.06811 | 12.18049 | 34338 ft | 492 kts | 271° |
| 2026-04-23 00:39 | 50.06943 | 12.07400 | 34347 ft | 492 kts | 271° |
| 2026-04-23 00:39 | 50.07054 | 11.96744 | 34351 ft | 493 kts | 271° |
| 2026-04-23 00:40 | 50.07148 | 11.86153 | 34347 ft | 492 kts | 270° |
| 2026-04-23 00:40 | 50.07214 | 11.75508 | 34354 ft | 492 kts | 270° |
| 2026-04-23 00:41 | 50.07277 | 11.64866 | 34356 ft | 491 kts | 270° |
| 2026-04-23 00:41 | 50.07343 | 11.54231 | 34362 ft | 491 kts | 270° |
| 2026-04-23 00:42 | 50.07398 | 11.43671 | 34367 ft | 491 kts | 269° |
| 2026-04-23 00:42 | 50.07441 | 11.33037 | 34379 ft | 492 kts | 269° |
| 2026-04-23 00:43 | 50.07516 | 11.22387 | 34377 ft | 492 kts | 274° |
| 2026-04-23 00:43 | 50.08254 | 11.11793 | 34391 ft | 492 kts | 276° |
| 2026-04-23 00:44 | 50.09015 | 11.01197 | 34389 ft | 492 kts | 276° |
| 2026-04-23 00:44 | 50.09755 | 10.90670 | 34392 ft | 492 kts | 276° |
| 2026-04-23 00:45 | 50.10482 | 10.80069 | 34392 ft | 492 kts | 276° |
| 2026-04-23 00:45 | 50.11207 | 10.69467 | 34393 ft | 492 kts | 275° |
| 2026-04-23 00:46 | 50.11921 | 10.58855 | 34391 ft | 492 kts | 275° |
| 2026-04-23 00:46 | 50.12631 | 10.48329 | 34384 ft | 492 kts | 275° |
| 2026-04-23 00:47 | 50.13327 | 10.37728 | 34385 ft | 492 kts | 275° |
| 2026-04-23 00:47 | 50.14101 | 10.27145 | 34385 ft | 491 kts | 281° |
| 2026-04-23 00:48 | 50.15876 | 10.16938 | 34389 ft | 491 kts | 287° |
| 2026-04-23 00:48 | 50.17761 | 10.06703 | 34379 ft | 491 kts | 286° |
| 2026-04-23 00:49 | 50.19624 | 9.96457 | 34374 ft | 491 kts | 286° |
| 2026-04-23 00:49 | 50.21475 | 9.86198 | 34373 ft | 491 kts | 286° |
| 2026-04-23 00:50 | 50.23314 | 9.75940 | 34360 ft | 491 kts | 286° |
| 2026-04-23 00:50 | 50.25135 | 9.65741 | 34344 ft | 491 kts | 285° |
| 2026-04-23 00:51 | 50.26962 | 9.55469 | 34348 ft | 491 kts | 285° |
| 2026-04-23 00:51 | 50.28778 | 9.45184 | 34355 ft | 491 kts | 285° |
| 2026-04-23 00:52 | 50.30585 | 9.34894 | 34371 ft | 491 kts | 285° |
| 2026-04-23 00:52 | 50.32375 | 9.24671 | 34380 ft | 491 kts | 285° |
| 2026-04-23 00:53 | 50.34166 | 9.14365 | 34388 ft | 490 kts | 284° |
| 2026-04-23 00:53 | 50.36065 | 9.04121 | 34396 ft | 490 kts | 287° |
| 2026-04-23 00:54 | 50.37783 | 8.95669 | 34388 ft | 490 kts | 288° |
| 2026-04-23 00:54 | 50.40206 | 8.83859 | 34398 ft | 490 kts | 287° |
| 2026-04-23 00:55 | 50.41892 | 8.75388 | 34397 ft | 490 kts | 287° |
| 2026-04-23 00:55 | 50.43871 | 8.65168 | 34393 ft | 490 kts | 287° |
| 2026-04-23 00:56 | 50.45223 | 8.54721 | 34393 ft | 489 kts | 277° |
| 2026-04-23 00:56 | 50.46438 | 8.42483 | 34396 ft | 489 kts | 277° |
| 2026-04-23 00:57 | 50.47305 | 8.33717 | 34406 ft | 488 kts | 277° |
| 2026-04-23 00:57 | 50.48341 | 8.23201 | 34411 ft | 487 kts | 277° |
| 2026-04-23 00:58 | 50.49365 | 8.12689 | 34413 ft | 486 kts | 277° |
| 2026-04-23 00:58 | 50.50376 | 8.02205 | 34412 ft | 485 kts | 277° |
| 2026-04-23 00:59 | 50.51372 | 7.91720 | 34409 ft | 485 kts | 277° |
| 2026-04-23 00:59 | 50.52344 | 7.81324 | 34422 ft | 483 kts | 277° |
| 2026-04-23 01:00 | 50.53315 | 7.70895 | 34424 ft | 481 kts | 277° |
| 2026-04-23 01:00 | 50.54277 | 7.60498 | 34416 ft | 480 kts | 277° |
| 2026-04-23 01:01 | 50.55232 | 7.50116 | 34410 ft | 479 kts | 277° |
| 2026-04-23 01:01 | 50.55903 | 7.39713 | 34412 ft | 477 kts | 269° |
| 2026-04-23 01:02 | 50.55976 | 7.29393 | 34420 ft | 474 kts | 269° |
| 2026-04-23 01:02 | 50.56035 | 7.19044 | 34408 ft | 472 kts | 269° |
| 2026-04-23 01:03 | 50.55979 | 7.08739 | 34404 ft | 470 kts | 266° |
| 2026-04-23 01:03 | 50.55711 | 6.98477 | 34402 ft | 469 kts | 265° |
| 2026-04-23 01:04 | 50.55415 | 6.88320 | 34406 ft | 467 kts | 266° |
| 2026-04-23 01:04 | 50.55028 | 6.73049 | 34404 ft | 465 kts | 268° |
| 2026-04-23 01:05 | 50.55682 | 6.62975 | 34401 ft | 464 kts | 281° |
| 2026-04-23 01:05 | 50.56913 | 6.53017 | 34399 ft | 464 kts | 281° |
| 2026-04-23 01:06 | 50.58106 | 6.43065 | 34405 ft | 462 kts | 281° |
| 2026-04-23 01:06 | 50.59271 | 6.33208 | 34414 ft | 461 kts | 281° |
| 2026-04-23 01:07 | 50.60446 | 6.23305 | 34412 ft | 460 kts | 281° |
| 2026-04-23 01:07 | 50.61616 | 6.13417 | 34411 ft | 459 kts | 281° |
| 2026-04-23 01:08 | 50.62765 | 6.03596 | 34404 ft | 458 kts | 281° |
| 2026-04-23 01:08 | 50.63905 | 5.93741 | 34416 ft | 457 kts | 281° |
| 2026-04-23 01:09 | 50.65340 | 5.84029 | 34398 ft | 459 kts | 292° |
| 2026-04-23 01:09 | 50.68136 | 5.74909 | 34385 ft | 466 kts | 298° |
| 2026-04-23 01:10 | 50.71061 | 5.65838 | 34386 ft | 468 kts | 298° |
| 2026-04-23 01:10 | 50.73985 | 5.56695 | 34383 ft | 464 kts | 298° |
| 2026-04-23 01:11 | 50.76884 | 5.47591 | 33481 ft | 467 kts | 298° |
| 2026-04-23 01:11 | 50.78339 | 5.43004 | 32744 ft | 466 kts | 298° |
| 2026-04-23 01:11 | 50.79789 | 5.38443 | 32119 ft | 463 kts | 298° |
| 2026-04-23 01:12 | 50.81228 | 5.33911 | 31513 ft | 459 kts | 298° |
| 2026-04-23 01:12 | 50.82651 | 5.29421 | 30908 ft | 455 kts | 298° |
| 2026-04-23 01:12 | 50.84038 | 5.25029 | 30295 ft | 451 kts | 297° |
| 2026-04-23 01:12 | 50.85429 | 5.20605 | 29633 ft | 446 kts | 297° |
| 2026-04-23 01:13 | 50.86768 | 5.16199 | 28967 ft | 442 kts | 294° |
| 2026-04-23 01:13 | 50.87640 | 5.11574 | 28425 ft | 436 kts | 281° |
| 2026-04-23 01:13 | 50.87808 | 5.06828 | 27721 ft | 429 kts | 266° |
| 2026-04-23 01:13 | 50.87201 | 5.02248 | 26809 ft | 424 kts | 250° |
| 2026-04-23 01:14 | 50.85846 | 4.98137 | 25924 ft | 419 kts | 234° |
| 2026-04-23 01:14 | 50.84016 | 4.94582 | 25038 ft | 415 kts | 230° |
| 2026-04-23 01:14 | 50.82185 | 4.91153 | 24227 ft | 412 kts | 230° |
| 2026-04-23 01:14 | 50.80343 | 4.87713 | 23360 ft | 408 kts | 230° |
| 2026-04-23 01:15 | 50.78519 | 4.84309 | 22461 ft | 404 kts | 230° |
| 2026-04-23 01:15 | 50.76712 | 4.80941 | 21573 ft | 400 kts | 230° |
| 2026-04-23 01:15 | 50.74923 | 4.77610 | 20680 ft | 396 kts | 230° |
| 2026-04-23 01:15 | 50.73155 | 4.74315 | 19836 ft | 392 kts | 230° |
| 2026-04-23 01:16 | 50.71402 | 4.71050 | 18993 ft | 388 kts | 230° |
| 2026-04-23 01:16 | 50.69690 | 4.67864 | 18121 ft | 384 kts | 230° |
| 2026-04-23 01:16 | 50.67973 | 4.64671 | 17183 ft | 380 kts | 231° |
| 2026-04-23 01:16 | 50.66275 | 4.61507 | 16291 ft | 376 kts | 231° |
| 2026-04-23 01:17 | 50.64594 | 4.58382 | 15437 ft | 371 kts | 230° |
| 2026-04-23 01:17 | 50.62932 | 4.55300 | 14615 ft | 367 kts | 230° |
| 2026-04-23 01:17 | 50.61288 | 4.52260 | 13762 ft | 362 kts | 230° |
| 2026-04-23 01:17 | 50.59674 | 4.49290 | 13268 ft | 347 kts | 230° |
| 2026-04-23 01:18 | 50.58147 | 4.46485 | 12923 ft | 330 kts | 230° |
| 2026-04-23 01:18 | 50.56671 | 4.43772 | 12364 ft | 324 kts | 230° |
| 2026-04-23 01:18 | 50.55237 | 4.41134 | 11763 ft | 319 kts | 229° |
| 2026-04-23 01:18 | 50.53803 | 4.38497 | 11162 ft | 316 kts | 229° |
| 2026-04-23 01:19 | 50.52382 | 4.35890 | 10570 ft | 312 kts | 229° |
| 2026-04-23 01:19 | 50.50978 | 4.33318 | 9974 ft | 308 kts | 229° |
| 2026-04-23 01:19 | 50.49591 | 4.30779 | 9334 ft | 305 kts | 229° |
| 2026-04-23 01:19 | 50.48220 | 4.28243 | 8542 ft | 306 kts | 231° |
| 2026-04-23 01:20 | 50.47128 | 4.25362 | 7720 ft | 308 kts | 245° |
| 2026-04-23 01:20 | 50.46246 | 4.22296 | 7000 ft | 307 kts | 245° |
| 2026-04-23 01:20 | 50.45393 | 4.19300 | 6375 ft | 302 kts | 245° |
| 2026-04-23 01:20 | 50.44543 | 4.16316 | 5736 ft | 297 kts | 246° |
| 2026-04-23 01:21 | 50.43704 | 4.13391 | 5254 ft | 288 kts | 245° |
| 2026-04-23 01:21 | 50.42724 | 4.10787 | 5062 ft | 269 kts | 229° |
| 2026-04-23 01:21 | 50.41335 | 4.08924 | 4606 ft | 260 kts | 206° |
| 2026-04-23 01:21 | 50.39695 | 4.08040 | 4386 ft | 241 kts | 185° |
| 2026-04-23 01:22 | 50.38106 | 4.08086 | 4257 ft | 218 kts | 166° |
| 2026-04-23 01:22 | 50.36749 | 4.08845 | 4104 ft | 200 kts | 148° |
| 2026-04-23 01:22 | 50.35658 | 4.10119 | 3980 ft | 194 kts | 132° |
| 2026-04-23 01:22 | 50.34863 | 4.11755 | 3865 ft | 190 kts | 117° |
| 2026-04-23 01:23 | 50.34381 | 4.13660 | 3751 ft | 188 kts | 103° |
| 2026-04-23 01:23 | 50.34247 | 4.15684 | 3631 ft | 187 kts | 88° |
| 2026-04-23 01:23 | 50.34460 | 4.17689 | 3514 ft | 188 kts | 74° |
| 2026-04-23 01:23 | 50.35010 | 4.19546 | 3388 ft | 190 kts | 59° |
| 2026-04-23 01:24 | 50.35859 | 4.21131 | 3274 ft | 191 kts | 48° |
| 2026-04-23 01:24 | 50.36787 | 4.22617 | 3158 ft | 191 kts | 48° |
| 2026-04-23 01:24 | 50.37700 | 4.24087 | 3054 ft | 181 kts | 49° |
| 2026-04-23 01:24 | 50.38527 | 4.25414 | 2943 ft | 161 kts | 49° |
| 2026-04-23 01:25 | 50.39265 | 4.26603 | 2837 ft | 150 kts | 50° |
| 2026-04-23 01:25 | 50.39976 | 4.27750 | 2756 ft | 142 kts | 50° |
| 2026-04-23 01:25 | 50.40656 | 4.28847 | 2662 ft | 139 kts | 50° |
| 2026-04-23 01:25 | 50.41322 | 4.29924 | 2567 ft | 137 kts | 50° |
| 2026-04-23 01:26 | 50.41871 | 4.31118 | 2467 ft | 134 kts | 68° |
| 2026-04-23 01:26 | 50.42251 | 4.32449 | 2269 ft | 133 kts | 69° |
| 2026-04-23 01:26 | 50.42637 | 4.33776 | 2088 ft | 134 kts | 68° |
| 2026-04-23 01:26 | 50.43021 | 4.35097 | 1898 ft | 133 kts | 68° |
| 2026-04-23 01:27 | 50.43404 | 4.36417 | 1729 ft | 133 kts | 68° |
| 2026-04-23 01:27 | 50.43782 | 4.37710 | 1541 ft | 132 kts | 67° |
| 2026-04-23 01:27 | 50.44168 | 4.39018 | 1366 ft | 132 kts | 67° |
| 2026-04-23 01:27 | 50.44543 | 4.40330 | 1180 ft | 133 kts | 65° |
| 2026-04-23 01:28 | 50.44930 | 4.41644 | 1035 ft | 133 kts | 65° |
| 2026-04-23 01:28 | 50.45317 | 4.42964 | 835 ft | 134 kts | 66° |
| 2026-04-23 01:28 | 50.45702 | 4.44297 | 675 ft | 134 kts | 65° |
| 2026-04-23 01:28 | 50.46059 | 4.45524 | 633 ft | 109 kts | 65° |
| 2026-04-23 01:29 | 50.46310 | 4.46398 | 620 ft | 65 kts | 65° |
| 2026-04-23 01:29 | 50.46422 | 4.46779 | 621 ft | 20 kts | 65° |
| 2026-04-23 01:29 | 50.46512 | 4.46883 | 624 ft | 18 kts | 352° |
| 2026-04-23 01:29 | 50.46588 | 4.46836 | 625 ft | 7 kts | 335° |
| 2026-04-23 01:30 | 50.46646 | 4.46794 | 627 ft | 12 kts | 335° |
| 2026-04-23 01:30 | 50.46722 | 4.46716 | 620 ft | 11 kts | 334° |
| 2026-04-23 01:30 | 50.46746 | 4.46697 | 622 ft | 0 kts | 335° |